This is the latest recevied weather packets stored in our database for station/object KB1FFS. If no packets are shown the sender has not sent any weather packets the latest 10 day(s).
| Time | Temp. | Humidity | Pressure | Rain* | Wind** | Luminosity | Snow |
|---|---|---|---|---|---|---|---|
| 1777847015 | 29.44° C | 28% | 1017 hPa | 0 mm | - | 487 W/m² | - |
| 1777846712 | 29.44° C | 29% | 1017 hPa | 0 mm | - | 420 W/m² | - |
| 1777846411 | 29.44° C | 27% | 1017 hPa | 0 mm | - | 414 W/m² | - |
| 1777846106 | 30° C | 27% | 1017.1 hPa | 0 mm | - | 447 W/m² | - |
| 1777845803 | 29.44° C | 26% | 1017.2 hPa | 0 mm | - | 529 W/m² | - |
| 1777845500 | 30° C | 27% | 1017.1 hPa | 0 mm | - | 542 W/m² | - |
| 1777845198 | 30° C | 26% | 1017.1 hPa | 0 mm | - | 565 W/m² | - |
| 1777844895 | 30° C | 27% | 1017.3 hPa | 0 mm | - | 621 W/m² | - |
| 1777844592 | 30° C | 26% | 1017.4 hPa | 0 mm | - | 552 W/m² | - |
| 1777844290 | 30° C | 26% | 1017.5 hPa | 0 mm | - | 648 W/m² | - |
| 1777843987 | 30.56° C | 27% | 1017.4 hPa | 0 mm | - | 655 W/m² | - |
| 1777843684 | 30° C | 27% | 1017.6 hPa | 0 mm | - | 674 W/m² | - |
| 1777843382 | 30.56° C | 26% | 1017.5 hPa | 0 mm | - | 693 W/m² | - |
| 1777843079 | 30.56° C | 28% | 1017.8 hPa | 0 mm | - | 709 W/m² | - |
| 1777842775 | 30° C | 25% | 1017.9 hPa | 0 mm | - | 719 W/m² | - |
| 1777842475 | 30° C | 27% | 1017.9 hPa | 0 mm | - | 729 W/m² | - |
| 1777842173 | 30.56° C | 27% | 1017.9 hPa | 0 mm | - | 744 W/m² | - |
| 1777841868 | 30° C | 26% | 1018.1 hPa | 0 mm | - | 760 W/m² | - |
| 1777841565 | 30.56° C | 26% | 1018.1 hPa | 0 mm | - | 765 W/m² | - |
| 1777841261 | 30.56° C | 26% | 1018.2 hPa | 0 mm | - | 789 W/m² | - |
| 1777840959 | 30° C | 28% | 1018.4 hPa | 0 mm | - | 797 W/m² | - |
| 1777840656 | 30.56° C | 27% | 1018.4 hPa | 0 mm | - | 823 W/m² | - |
| 1777840354 | 30.56° C | 27% | 1018.3 hPa | 0 mm | - | 638 W/m² | - |
| 1777840051 | 30.56° C | 27% | 1018.7 hPa | 0 mm | - | 894 W/m² | - |
| 1777839749 | 30.56° C | 27% | 1018.5 hPa | 0 mm | - | 680 W/m² | - |
* Rain latest hour (hover to see other rain measurements)
** Current wind speed in m/s (hover to see current wind gust speed)